CheckWX is a tool to help pilots better visualize weather data.  It is not intended as a substitute for an official pre-flight weather briefing.

09:56:44 UTC

KETN METAR
Eastland Municipal Airport
Eastland, Texas, USA
Current

42 mins ago

KETN 200915Z AUTO 28007KT 10SM OVC008 00/M01 A2996 RMK AO2 T00011011
Observed
Feb-20 @ 09:15 UTC
Wind
  • 280° at 7 KTS
Visibility
16,093 meters
Flight Rules
IFR
Cloud Levels
  • Overcast at 800' AGL
Temperature
C / 32°F
Dewpoint
-1°C / 30°F
Humidity
93%
Altimeter
29.96" Hg
Pressure
1014.52 hPa
Previous

1 hour ago

KETN 200855Z AUTO 29006KT 10SM OVC008 00/M01 A2996 RMK AO2 T00001011
Observed
Feb-20 @ 08:55 UTC
Wind
  • 290° at 6 KTS
Visibility
16,093 meters
Flight Rules
IFR
Cloud Levels
  • Overcast at 800' AGL
Temperature
C / 32°F
Dewpoint
-1°C / 30°F
Humidity
93%
Altimeter
29.96" Hg
Pressure
1014.52 hPa
Previous

1 hour ago

KETN 200835Z AUTO 28006KT 10SM OVC008 00/M01 A2994 RMK AO2 T00011010
Observed
Feb-20 @ 08:35 UTC
Wind
  • 280° at 6 KTS
Visibility
16,093 meters
Flight Rules
IFR
Cloud Levels
  • Overcast at 800' AGL
Temperature
C / 32°F
Dewpoint
-1°C / 30°F
Humidity
93%
Altimeter
29.94" Hg
Pressure
1013.92 hPa